createdAt,value
2022-08-25T03:39:32.974Z,99.90
2022-08-25T03:42:05.022Z,99.90
2022-08-25T03:47:00.840Z,99.90
2022-08-25T03:56:55.751Z,99.90
2022-08-25T03:59:23.306Z,99.90
2022-08-25T04:01:55.134Z,99.90
2022-08-25T04:04:22.956Z,99.90
2022-08-25T04:06:50.870Z,99.90
2022-08-25T04:09:18.061Z,99.90
2022-08-25T04:16:54.081Z,99.90
2022-08-25T04:19:25.762Z,99.90
2022-08-25T07:09:38.961Z,99.90
2022-08-25T07:14:35.373Z,99.90
2022-08-25T07:24:56.843Z,99.90
2022-08-25T07:27:25.810Z,99.90
2022-08-25T07:29:54.068Z,99.90
2022-08-25T07:32:21.310Z,99.90
2022-08-25T07:35:07.414Z,99.90
2022-08-25T07:37:48.768Z,99.90
2022-08-25T07:40:23.676Z,99.90
2022-08-25T07:42:53.428Z,99.90
2022-08-25T07:45:29.655Z,99.90
2022-08-25T07:48:03.138Z,99.90
2022-08-25T07:50:31.437Z,99.90
2022-08-25T07:53:00.199Z,99.90
2022-08-25T07:55:30.531Z,99.90
2022-08-25T07:57:59.818Z,99.90
2022-08-25T08:00:30.092Z,1.00
2022-08-25T08:02:58.876Z,1.00
2022-08-25T08:05:27.343Z,99.90
2022-08-25T08:07:56.316Z,98.40
2022-08-25T08:13:17.762Z,13.30
2022-08-25T08:15:47.104Z,11.90
2022-08-25T08:18:15.884Z,1.00
2022-08-25T08:20:45.151Z,1.00
2022-08-25T08:23:12.754Z,4.60
2022-08-25T08:25:40.397Z,98.30
2022-08-25T08:28:08.294Z,17.50
2022-08-25T08:30:38.395Z,29.10
2022-08-25T08:33:10.053Z,26.50
2022-08-25T08:35:39.662Z,1.00
2022-08-25T08:38:14.594Z,1.00
2022-08-25T08:41:11.572Z,1.00
2022-08-25T08:43:41.751Z,1.00
2022-08-25T08:46:09.110Z,99.90
2022-08-25T08:48:52.496Z,99.90
2022-08-25T08:51:33.094Z,99.90
2022-08-25T08:54:15.007Z,99.90
2022-08-25T08:56:48.074Z,99.90
2022-08-25T08:59:30.127Z,99.90
2022-08-25T09:02:04.077Z,99.90
2022-08-25T09:05:08.121Z,99.90
2022-08-25T09:07:49.581Z,99.90
2022-08-25T09:10:24.552Z,99.90
2022-08-25T09:16:20.501Z,99.90
2022-08-25T09:19:33.363Z,99.90
2022-08-25T09:22:01.122Z,99.90
2022-08-25T09:24:48.119Z,99.90
2022-08-25T09:27:15.503Z,78.00
2022-08-25T09:29:57.172Z,44.30
2022-08-25T09:32:31.583Z,35.50
2022-08-25T09:35:01.291Z,22.90
2022-08-25T09:37:29.167Z,20.70
2022-08-25T09:39:57.350Z,27.60
2022-08-25T09:42:48.172Z,49.10
2022-08-25T09:45:42.471Z,65.60
2022-08-25T09:48:43.464Z,67.70
2022-08-25T09:51:23.570Z,50.00
2022-08-25T09:54:02.885Z,54.40
2022-08-25T09:56:55.866Z,54.20
2022-08-25T09:59:34.110Z,52.90
2022-08-25T10:02:06.664Z,47.00
2022-08-25T10:04:40.036Z,99.90
2022-08-25T10:26:34.795Z,89.50
2022-08-25T10:29:13.169Z,99.90
2022-08-25T10:40:11.109Z,81.70
2022-08-25T10:43:00.421Z,1.00
2022-08-25T10:45:45.041Z,1.00
2022-08-25T10:48:40.448Z,1.00
2022-08-25T10:51:18.056Z,1.00
2022-08-25T10:53:56.855Z,1.00
2022-08-25T10:56:34.011Z,1.00
2022-08-25T10:59:20.132Z,1.00
2022-08-25T11:02:24.215Z,1.00
2022-08-25T11:05:10.124Z,1.00
2022-08-25T11:07:51.954Z,1.00
2022-08-25T11:10:26.173Z,1.00
2022-08-25T11:13:00.972Z,1.00
2022-08-25T11:15:36.962Z,1.00
2022-08-25T11:18:14.863Z,1.00
2022-08-25T11:20:56.524Z,1.00
2022-08-25T11:23:39.789Z,1.00
2022-08-25T11:26:14.078Z,1.00
2022-08-25T11:29:18.458Z,1.00
2022-08-25T11:31:53.720Z,1.00
2022-08-25T11:34:22.980Z,1.00
2022-08-25T11:37:01.191Z,1.00
2022-08-25T11:40:01.477Z,1.00
2022-08-25T11:42:45.548Z,1.00
2022-08-25T11:45:33.698Z,1.00
2022-08-25T11:48:22.959Z,1.00
2022-08-25T11:51:07.085Z,1.00
2022-08-25T11:53:42.209Z,1.00
2022-08-25T11:56:34.674Z,1.00
2022-08-25T11:59:02.441Z,1.00
2022-08-25T12:01:44.672Z,1.00
2022-08-25T12:04:33.563Z,1.00
2022-08-25T12:07:07.214Z,1.00
2022-08-25T12:09:55.034Z,4.00
2022-08-25T12:12:38.851Z,6.70
2022-08-25T12:15:42.369Z,7.40
2022-08-25T12:18:13.441Z,30.60
2022-08-25T12:21:00.099Z,78.10
2022-08-25T12:23:37.753Z,59.40
2022-08-25T12:26:32.203Z,61.30
2022-08-25T12:29:31.636Z,70.60
2022-08-25T12:32:17.457Z,70.10
2022-08-25T12:34:51.712Z,76.40
2022-08-25T12:37:23.607Z,74.70
2022-08-25T12:39:59.846Z,78.00
2022-08-25T12:42:33.412Z,77.90
2022-08-25T12:45:15.728Z,85.10
2022-08-25T12:47:47.409Z,81.90
2022-08-25T12:50:36.750Z,90.20
2022-08-25T12:53:24.493Z,84.80
2022-08-25T12:56:01.548Z,83.20
2022-08-25T12:58:58.506Z,86.20
2022-08-25T13:02:07.006Z,92.80
2022-08-25T13:04:59.560Z,93.20
2022-08-25T13:10:28.475Z,98.90
2022-08-25T13:13:04.500Z,99.90
2022-08-25T13:15:35.323Z,99.90
2022-08-25T13:18:34.496Z,99.90
2022-08-25T13:31:15.444Z,99.90
2022-08-25T14:56:29.340Z,99.90
2022-08-25T15:01:30.138Z,99.90
2022-08-25T15:32:07.669Z,99.90
2022-08-25T15:34:35.848Z,99.90
2022-08-25T15:37:12.610Z,99.90
2022-08-25T15:39:41.843Z,99.90
2022-08-25T18:43:43.545Z,99.90
2022-08-25T18:48:41.592Z,99.90
2022-08-25T18:51:10.376Z,99.90
2022-08-25T18:53:50.746Z,1.00
2022-08-25T18:56:19.640Z,68.20
2022-08-25T19:01:18.543Z,99.90
2022-08-25T19:03:46.443Z,99.90
2022-08-25T19:06:15.552Z,1.00
2022-08-25T19:08:43.723Z,99.90
2022-08-25T19:11:12.408Z,1.00
2022-08-25T19:13:40.354Z,99.90
2022-08-25T19:16:30.904Z,1.00
2022-08-25T19:18:58.663Z,1.00
2022-08-25T19:26:24.796Z,99.90
2022-08-25T19:28:53.321Z,99.90
2022-08-25T19:31:27.482Z,99.90
2022-08-25T19:34:02.531Z,99.90
2022-08-25T19:39:01.543Z,99.90
2022-08-25T19:41:31.296Z,99.90
2022-08-25T19:56:54.618Z,99.90
